sensor_id;sensor_type;location;lat;lon;timestamp;temperature;humidity
9033;DHT22;4551;53.164;8.210;2023-02-28T00:01:12;4.70;99.90
9033;DHT22;4551;53.164;8.210;2023-02-28T00:03:41;4.70;99.90
9033;DHT22;4551;53.164;8.210;2023-02-28T00:06:15;4.70;99.90
9033;DHT22;4551;53.164;8.210;2023-02-28T00:08:53;4.70;99.90
9033;DHT22;4551;53.164;8.210;2023-02-28T00:11:21;4.70;99.90
9033;DHT22;4551;53.164;8.210;2023-02-28T00:13:52;4.70;99.90
9033;DHT22;4551;53.164;8.210;2023-02-28T00:16:21;4.70;99.90
9033;DHT22;4551;53.164;8.210;2023-02-28T00:18:50;4.70;99.90
9033;DHT22;4551;53.164;8.210;2023-02-28T00:21:18;4.70;99.90
9033;DHT22;4551;53.164;8.210;2023-02-28T00:23:46;4.70;99.90
9033;DHT22;4551;53.164;8.210;2023-02-28T00:26:19;4.70;99.90
9033;DHT22;4551;53.164;8.210;2023-02-28T00:28:48;4.70;99.90
9033;DHT22;4551;53.164;8.210;2023-02-28T00:31:16;4.70;99.90
9033;DHT22;4551;53.164;8.210;2023-02-28T00:33:44;4.70;99.90
9033;DHT22;4551;53.164;8.210;2023-02-28T00:36:14;4.70;99.90
9033;DHT22;4551;53.164;8.210;2023-02-28T00:38:42;4.70;99.90
9033;DHT22;4551;53.164;8.210;2023-02-28T00:41:10;4.70;99.90
9033;DHT22;4551;53.164;8.210;2023-02-28T00:43:39;4.70;99.90
9033;DHT22;4551;53.164;8.210;2023-02-28T00:46:07;4.70;99.90
9033;DHT22;4551;53.164;8.210;2023-02-28T00:48:36;4.60;99.90
9033;DHT22;4551;53.164;8.210;2023-02-28T00:51:04;4.60;99.90
9033;DHT22;4551;53.164;8.210;2023-02-28T00:53:32;4.60;99.90
9033;DHT22;4551;53.164;8.210;2023-02-28T00:56:02;4.60;99.90
9033;DHT22;4551;53.164;8.210;2023-02-28T00:58:34;4.60;99.90
9033;DHT22;4551;53.164;8.210;2023-02-28T01:01:04;4.60;99.90
9033;DHT22;4551;53.164;8.210;2023-02-28T01:03:32;4.60;99.90
9033;DHT22;4551;53.164;8.210;2023-02-28T01:06:02;4.60;99.90
9033;DHT22;4551;53.164;8.210;2023-02-28T01:08:30;4.60;99.90
9033;DHT22;4551;53.164;8.210;2023-02-28T01:11:06;4.60;99.90
9033;DHT22;4551;53.164;8.210;2023-02-28T01:13:34;4.60;99.90
9033;DHT22;4551;53.164;8.210;2023-02-28T01:16:05;4.60;99.90
9033;DHT22;4551;53.164;8.210;2023-02-28T01:18:33;4.60;99.90
9033;DHT22;4551;53.164;8.210;2023-02-28T01:21:04;4.60;99.90
9033;DHT22;4551;53.164;8.210;2023-02-28T01:23:35;4.60;99.90
9033;DHT22;4551;53.164;8.210;2023-02-28T01:26:04;4.60;99.90
9033;DHT22;4551;53.164;8.210;2023-02-28T01:28:36;4.60;99.90
9033;DHT22;4551;53.164;8.210;2023-02-28T01:31:06;4.60;99.90
9033;DHT22;4551;53.164;8.210;2023-02-28T01:33:34;4.60;99.90
9033;DHT22;4551;53.164;8.210;2023-02-28T01:36:05;4.60;99.90
9033;DHT22;4551;53.164;8.210;2023-02-28T01:38:33;4.50;99.90
9033;DHT22;4551;53.164;8.210;2023-02-28T01:41:01;4.60;99.90
9033;DHT22;4551;53.164;8.210;2023-02-28T01:43:32;4.60;99.90
9033;DHT22;4551;53.164;8.210;2023-02-28T01:46:00;4.60;99.90
9033;DHT22;4551;53.164;8.210;2023-02-28T01:48:30;4.60;99.90
9033;DHT22;4551;53.164;8.210;2023-02-28T01:51:03;4.60;99.90
9033;DHT22;4551;53.164;8.210;2023-02-28T01:53:36;4.60;99.90
9033;DHT22;4551;53.164;8.210;2023-02-28T01:56:13;4.60;99.90
9033;DHT22;4551;53.164;8.210;2023-02-28T01:58:49;4.60;99.90
9033;DHT22;4551;53.164;8.210;2023-02-28T02:01:18;4.60;99.90
9033;DHT22;4551;53.164;8.210;2023-02-28T02:03:50;4.60;99.90
9033;DHT22;4551;53.164;8.210;2023-02-28T02:06:26;4.60;99.90
9033;DHT22;4551;53.164;8.210;2023-02-28T02:08:55;4.60;99.90
9033;DHT22;4551;53.164;8.210;2023-02-28T02:11:25;4.60;99.90
9033;DHT22;4551;53.164;8.210;2023-02-28T02:14:15;4.60;99.90
9033;DHT22;4551;53.164;8.210;2023-02-28T02:16:51;4.60;99.90
9033;DHT22;4551;53.164;8.210;2023-02-28T02:19:28;4.60;99.90
9033;DHT22;4551;53.164;8.210;2023-02-28T02:22:05;4.60;99.90
9033;DHT22;4551;53.164;8.210;2023-02-28T02:27:24;4.60;99.90
9033;DHT22;4551;53.164;8.210;2023-02-28T02:32:47;4.60;99.90
9033;DHT22;4551;53.164;8.210;2023-02-28T02:35:24;4.60;99.90
9033;DHT22;4551;53.164;8.210;2023-02-28T02:37:56;4.60;99.90
9033;DHT22;4551;53.164;8.210;2023-02-28T02:40:27;4.60;99.90
9033;DHT22;4551;53.164;8.210;2023-02-28T02:43:01;4.50;99.90
9033;DHT22;4551;53.164;8.210;2023-02-28T02:45:36;4.60;99.90
9033;DHT22;4551;53.164;8.210;2023-02-28T02:48:09;4.50;99.90
9033;DHT22;4551;53.164;8.210;2023-02-28T02:50:41;4.50;99.90
9033;DHT22;4551;53.164;8.210;2023-02-28T02:53:10;4.50;99.90
9033;DHT22;4551;53.164;8.210;2023-02-28T02:55:44;4.50;99.90
9033;DHT22;4551;53.164;8.210;2023-02-28T02:58:20;4.50;99.90
9033;DHT22;4551;53.164;8.210;2023-02-28T03:00:50;4.50;99.90
9033;DHT22;4551;53.164;8.210;2023-02-28T03:03:20;4.50;99.90
9033;DHT22;4551;53.164;8.210;2023-02-28T03:05:57;4.50;99.90
9033;DHT22;4551;53.164;8.210;2023-02-28T03:08:28;4.50;99.90
9033;DHT22;4551;53.164;8.210;2023-02-28T03:10:57;4.40;99.90
9033;DHT22;4551;53.164;8.210;2023-02-28T03:13:32;4.50;99.90
9033;DHT22;4551;53.164;8.210;2023-02-28T03:16:18;4.50;99.90
9033;DHT22;4551;53.164;8.210;2023-02-28T03:18:52;4.40;99.90
9033;DHT22;4551;53.164;8.210;2023-02-28T03:21:26;4.40;99.90
9033;DHT22;4551;53.164;8.210;2023-02-28T03:23:58;4.40;99.90
9033;DHT22;4551;53.164;8.210;2023-02-28T03:26:28;4.50;99.90
9033;DHT22;4551;53.164;8.210;2023-02-28T03:28:59;4.40;99.90
9033;DHT22;4551;53.164;8.210;2023-02-28T03:31:35;4.40;99.90
9033;DHT22;4551;53.164;8.210;2023-02-28T03:34:06;4.40;99.90
9033;DHT22;4551;53.164;8.210;2023-02-28T03:36:37;4.40;99.90
9033;DHT22;4551;53.164;8.210;2023-02-28T03:39:11;4.40;99.90
9033;DHT22;4551;53.164;8.210;2023-02-28T03:41:43;4.40;99.90
9033;DHT22;4551;53.164;8.210;2023-02-28T03:44:17;4.40;99.90
9033;DHT22;4551;53.164;8.210;2023-02-28T03:46:47;4.40;99.90
9033;DHT22;4551;53.164;8.210;2023-02-28T03:49:16;4.40;99.90
9033;DHT22;4551;53.164;8.210;2023-02-28T03:51:50;4.40;99.90
9033;DHT22;4551;53.164;8.210;2023-02-28T03:54:19;4.40;99.90
9033;DHT22;4551;53.164;8.210;2023-02-28T03:56:50;4.40;99.90
9033;DHT22;4551;53.164;8.210;2023-02-28T03:59:21;4.30;99.90
9033;DHT22;4551;53.164;8.210;2023-02-28T04:01:49;4.30;99.90
9033;DHT22;4551;53.164;8.210;2023-02-28T04:04:18;4.30;99.90
9033;DHT22;4551;53.164;8.210;2023-02-28T04:06:48;4.30;99.90
9033;DHT22;4551;53.164;8.210;2023-02-28T04:09:24;4.30;99.90
9033;DHT22;4551;53.164;8.210;2023-02-28T04:11:52;4.30;99.90
9033;DHT22;4551;53.164;8.210;2023-02-28T04:14:23;4.30;99.90
9033;DHT22;4551;53.164;8.210;2023-02-28T04:16:51;4.30;99.90
9033;DHT22;4551;53.164;8.210;2023-02-28T04:19:19;4.30;99.90
9033;DHT22;4551;53.164;8.210;2023-02-28T04:21:49;4.30;99.90
9033;DHT22;4551;53.164;8.210;2023-02-28T04:24:18;4.30;99.90
9033;DHT22;4551;53.164;8.210;2023-02-28T04:26:50;4.30;99.90
9033;DHT22;4551;53.164;8.210;2023-02-28T04:29:19;4.30;99.90
9033;DHT22;4551;53.164;8.210;2023-02-28T04:31:47;4.30;99.90
9033;DHT22;4551;53.164;8.210;2023-02-28T04:34:15;4.30;99.90
9033;DHT22;4551;53.164;8.210;2023-02-28T04:36:45;4.30;99.90
9033;DHT22;4551;53.164;8.210;2023-02-28T04:39:35;4.30;99.90
9033;DHT22;4551;53.164;8.210;2023-02-28T04:42:05;4.30;99.90
9033;DHT22;4551;53.164;8.210;2023-02-28T04:44:33;4.30;99.90
9033;DHT22;4551;53.164;8.210;2023-02-28T04:47:01;4.30;99.90
9033;DHT22;4551;53.164;8.210;2023-02-28T04:49:32;4.30;99.90
9033;DHT22;4551;53.164;8.210;2023-02-28T04:52:01;4.30;99.90
9033;DHT22;4551;53.164;8.210;2023-02-28T04:54:30;4.30;99.90
9033;DHT22;4551;53.164;8.210;2023-02-28T04:57:03;4.20;99.90
9033;DHT22;4551;53.164;8.210;2023-02-28T04:59:32;4.20;99.90
9033;DHT22;4551;53.164;8.210;2023-02-28T05:02:03;4.20;99.90
9033;DHT22;4551;53.164;8.210;2023-02-28T05:04:33;4.20;99.90
9033;DHT22;4551;53.164;8.210;2023-02-28T05:07:02;4.20;99.90
9033;DHT22;4551;53.164;8.210;2023-02-28T05:09:30;4.20;99.90
9033;DHT22;4551;53.164;8.210;2023-02-28T05:11:59;4.20;99.90
9033;DHT22;4551;53.164;8.210;2023-02-28T05:14:29;4.20;99.90
9033;DHT22;4551;53.164;8.210;2023-02-28T05:16:57;4.10;99.90
9033;DHT22;4551;53.164;8.210;2023-02-28T05:19:25;4.10;99.90
9033;DHT22;4551;53.164;8.210;2023-02-28T05:21:53;4.10;99.90
9033;DHT22;4551;53.164;8.210;2023-02-28T05:24:22;4.10;99.90
9033;DHT22;4551;53.164;8.210;2023-02-28T05:26:53;4.10;99.90
9033;DHT22;4551;53.164;8.210;2023-02-28T05:29:21;4.10;99.90
9033;DHT22;4551;53.164;8.210;2023-02-28T05:31:51;4.10;99.90
9033;DHT22;4551;53.164;8.210;2023-02-28T05:34:19;4.10;99.90
9033;DHT22;4551;53.164;8.210;2023-02-28T05:36:47;4.10;99.90
9033;DHT22;4551;53.164;8.210;2023-02-28T05:39:15;4.00;99.90
9033;DHT22;4551;53.164;8.210;2023-02-28T05:41:48;4.00;99.90
9033;DHT22;4551;53.164;8.210;2023-02-28T05:44:18;4.00;99.90
9033;DHT22;4551;53.164;8.210;2023-02-28T05:46:51;4.00;99.90
9033;DHT22;4551;53.164;8.210;2023-02-28T05:49:19;4.00;99.90
9033;DHT22;4551;53.164;8.210;2023-02-28T05:51:47;3.90;99.90
9033;DHT22;4551;53.164;8.210;2023-02-28T05:54:15;3.80;99.90
9033;DHT22;4551;53.164;8.210;2023-02-28T05:56:45;3.80;99.90
9033;DHT22;4551;53.164;8.210;2023-02-28T05:59:13;3.80;99.90
9033;DHT22;4551;53.164;8.210;2023-02-28T06:01:45;3.80;99.90
9033;DHT22;4551;53.164;8.210;2023-02-28T06:04:17;3.80;99.90
9033;DHT22;4551;53.164;8.210;2023-02-28T06:07:00;3.80;99.90
9033;DHT22;4551;53.164;8.210;2023-02-28T06:09:31;3.70;99.90
9033;DHT22;4551;53.164;8.210;2023-02-28T06:12:01;3.70;99.90
9033;DHT22;4551;53.164;8.210;2023-02-28T06:14:32;3.70;99.90
9033;DHT22;4551;53.164;8.210;2023-02-28T06:17:00;3.60;99.90
9033;DHT22;4551;53.164;8.210;2023-02-28T06:19:31;3.60;99.90
9033;DHT22;4551;53.164;8.210;2023-02-28T06:22:00;3.60;99.90
9033;DHT22;4551;53.164;8.210;2023-02-28T06:24:28;3.60;99.90
9033;DHT22;4551;53.164;8.210;2023-02-28T06:26:57;3.70;99.90
9033;DHT22;4551;53.164;8.210;2023-02-28T06:29:25;3.70;99.90
9033;DHT22;4551;53.164;8.210;2023-02-28T06:31:53;3.70;99.90
9033;DHT22;4551;53.164;8.210;2023-02-28T06:34:21;3.70;99.90
9033;DHT22;4551;53.164;8.210;2023-02-28T06:36:51;3.70;99.90
9033;DHT22;4551;53.164;8.210;2023-02-28T06:39:19;3.70;99.90
9033;DHT22;4551;53.164;8.210;2023-02-28T06:41:49;3.70;99.90
9033;DHT22;4551;53.164;8.210;2023-02-28T06:44:22;3.70;99.90
9033;DHT22;4551;53.164;8.210;2023-02-28T06:46:50;3.70;99.90
9033;DHT22;4551;53.164;8.210;2023-02-28T06:49:18;3.70;99.90
9033;DHT22;4551;53.164;8.210;2023-02-28T06:51:46;3.70;99.90
9033;DHT22;4551;53.164;8.210;2023-02-28T06:54:16;3.70;99.90
9033;DHT22;4551;53.164;8.210;2023-02-28T06:56:44;3.70;99.90
9033;DHT22;4551;53.164;8.210;2023-02-28T06:59:13;3.70;99.90
9033;DHT22;4551;53.164;8.210;2023-02-28T07:01:41;3.70;99.90
9033;DHT22;4551;53.164;8.210;2023-02-28T07:04:09;3.70;99.90
9033;DHT22;4551;53.164;8.210;2023-02-28T07:06:38;3.70;99.90
9033;DHT22;4551;53.164;8.210;2023-02-28T07:09:06;3.70;99.90
9033;DHT22;4551;53.164;8.210;2023-02-28T07:11:35;3.70;99.90
9033;DHT22;4551;53.164;8.210;2023-02-28T07:14:04;3.70;99.90
9033;DHT22;4551;53.164;8.210;2023-02-28T07:16:32;3.70;99.90
9033;DHT22;4551;53.164;8.210;2023-02-28T07:19:00;3.70;99.90
9033;DHT22;4551;53.164;8.210;2023-02-28T07:21:28;3.70;99.90
9033;DHT22;4551;53.164;8.210;2023-02-28T07:23:56;3.70;99.90
9033;DHT22;4551;53.164;8.210;2023-02-28T07:26:24;3.70;99.90
9033;DHT22;4551;53.164;8.210;2023-02-28T07:28:54;3.70;99.90
9033;DHT22;4551;53.164;8.210;2023-02-28T07:31:22;3.70;99.90
9033;DHT22;4551;53.164;8.210;2023-02-28T07:33:50;3.60;99.90
9033;DHT22;4551;53.164;8.210;2023-02-28T07:36:18;3.60;99.90
9033;DHT22;4551;53.164;8.210;2023-02-28T07:38:48;3.60;99.90
9033;DHT22;4551;53.164;8.210;2023-02-28T07:41:18;3.60;99.90
9033;DHT22;4551;53.164;8.210;2023-02-28T07:43:47;3.60;99.90
9033;DHT22;4551;53.164;8.210;2023-02-28T07:46:16;3.60;99.90
9033;DHT22;4551;53.164;8.210;2023-02-28T07:48:48;3.50;99.90
9033;DHT22;4551;53.164;8.210;2023-02-28T07:51:16;3.50;99.90
9033;DHT22;4551;53.164;8.210;2023-02-28T07:53:44;3.50;99.90
9033;DHT22;4551;53.164;8.210;2023-02-28T07:56:14;3.50;99.90
9033;DHT22;4551;53.164;8.210;2023-02-28T07:58:42;3.50;99.90
9033;DHT22;4551;53.164;8.210;2023-02-28T08:01:10;3.50;99.90
9033;DHT22;4551;53.164;8.210;2023-02-28T08:03:40;3.50;99.90
9033;DHT22;4551;53.164;8.210;2023-02-28T08:06:15;3.50;99.90
9033;DHT22;4551;53.164;8.210;2023-02-28T08:08:43;3.50;99.90
9033;DHT22;4551;53.164;8.210;2023-02-28T08:11:11;3.50;99.90
9033;DHT22;4551;53.164;8.210;2023-02-28T08:13:39;3.50;99.90
9033;DHT22;4551;53.164;8.210;2023-02-28T08:16:09;3.50;99.90
9033;DHT22;4551;53.164;8.210;2023-02-28T08:18:45;3.50;99.90
9033;DHT22;4551;53.164;8.210;2023-02-28T08:21:13;3.60;99.90
9033;DHT22;4551;53.164;8.210;2023-02-28T08:23:41;3.50;99.90
9033;DHT22;4551;53.164;8.210;2023-02-28T08:26:09;3.60;99.90
9033;DHT22;4551;53.164;8.210;2023-02-28T08:28:40;3.60;99.90
9033;DHT22;4551;53.164;8.210;2023-02-28T08:31:10;3.60;99.90
9033;DHT22;4551;53.164;8.210;2023-02-28T08:33:40;3.60;99.90
9033;DHT22;4551;53.164;8.210;2023-02-28T08:36:10;3.60;99.90
9033;DHT22;4551;53.164;8.210;2023-02-28T08:38:38;3.60;99.90
9033;DHT22;4551;53.164;8.210;2023-02-28T08:41:07;3.60;99.90
9033;DHT22;4551;53.164;8.210;2023-02-28T08:43:35;3.60;99.90
9033;DHT22;4551;53.164;8.210;2023-02-28T08:46:04;3.60;99.90
9033;DHT22;4551;53.164;8.210;2023-02-28T08:48:34;3.70;99.90
9033;DHT22;4551;53.164;8.210;2023-02-28T08:51:05;3.70;99.90
9033;DHT22;4551;53.164;8.210;2023-02-28T08:53:36;3.70;99.90
9033;DHT22;4551;53.164;8.210;2023-02-28T08:56:05;3.80;99.90
9033;DHT22;4551;53.164;8.210;2023-02-28T08:58:33;3.90;99.90
9033;DHT22;4551;53.164;8.210;2023-02-28T09:01:06;3.90;99.90
9033;DHT22;4551;53.164;8.210;2023-02-28T09:03:35;3.90;99.90
9033;DHT22;4551;53.164;8.210;2023-02-28T09:06:03;4.00;99.90
9033;DHT22;4551;53.164;8.210;2023-02-28T09:08:31;4.00;99.90
9033;DHT22;4551;53.164;8.210;2023-02-28T09:11:00;4.00;99.90
9033;DHT22;4551;53.164;8.210;2023-02-28T09:13:30;4.00;99.90
9033;DHT22;4551;53.164;8.210;2023-02-28T09:15:59;4.00;99.90
9033;DHT22;4551;53.164;8.210;2023-02-28T09:18:29;4.00;99.90
9033;DHT22;4551;53.164;8.210;2023-02-28T09:20:57;4.10;99.90
9033;DHT22;4551;53.164;8.210;2023-02-28T09:23:25;4.10;99.90
9033;DHT22;4551;53.164;8.210;2023-02-28T09:25:54;4.20;99.90
9033;DHT22;4551;53.164;8.210;2023-02-28T09:28:23;4.20;99.90
9033;DHT22;4551;53.164;8.210;2023-02-28T09:30:52;4.30;99.90
9033;DHT22;4551;53.164;8.210;2023-02-28T09:33:21;4.30;99.90
9033;DHT22;4551;53.164;8.210;2023-02-28T09:35:50;4.30;99.90
9033;DHT22;4551;53.164;8.210;2023-02-28T09:38:18;4.30;99.90
9033;DHT22;4551;53.164;8.210;2023-02-28T09:40:47;4.30;99.90
9033;DHT22;4551;53.164;8.210;2023-02-28T09:43:16;4.30;99.90
9033;DHT22;4551;53.164;8.210;2023-02-28T09:45:48;4.40;99.90
9033;DHT22;4551;53.164;8.210;2023-02-28T09:48:28;4.40;99.90
9033;DHT22;4551;53.164;8.210;2023-02-28T09:50:59;4.40;99.90
9033;DHT22;4551;53.164;8.210;2023-02-28T09:53:29;4.50;99.90
9033;DHT22;4551;53.164;8.210;2023-02-28T09:56:01;4.50;99.90
9033;DHT22;4551;53.164;8.210;2023-02-28T09:58:32;4.60;99.90
9033;DHT22;4551;53.164;8.210;2023-02-28T10:01:06;4.60;99.90
9033;DHT22;4551;53.164;8.210;2023-02-28T10:03:38;4.60;99.90
9033;DHT22;4551;53.164;8.210;2023-02-28T10:06:09;4.60;99.90
9033;DHT22;4551;53.164;8.210;2023-02-28T10:08:40;4.70;99.90
9033;DHT22;4551;53.164;8.210;2023-02-28T10:11:12;4.70;99.90
9033;DHT22;4551;53.164;8.210;2023-02-28T10:13:43;4.70;99.90
9033;DHT22;4551;53.164;8.210;2023-02-28T10:16:15;4.80;99.90
9033;DHT22;4551;53.164;8.210;2023-02-28T10:18:46;4.80;99.90
9033;DHT22;4551;53.164;8.210;2023-02-28T10:21:17;4.80;99.90
9033;DHT22;4551;53.164;8.210;2023-02-28T10:23:47;4.80;99.90
9033;DHT22;4551;53.164;8.210;2023-02-28T10:26:17;4.90;99.90
9033;DHT22;4551;53.164;8.210;2023-02-28T10:28:45;4.90;99.90
9033;DHT22;4551;53.164;8.210;2023-02-28T10:31:15;5.00;99.90
9033;DHT22;4551;53.164;8.210;2023-02-28T10:33:45;5.00;99.90
9033;DHT22;4551;53.164;8.210;2023-02-28T10:36:14;5.00;99.90
9033;DHT22;4551;53.164;8.210;2023-02-28T10:38:43;5.00;99.90
9033;DHT22;4551;53.164;8.210;2023-02-28T10:41:12;5.00;99.90
9033;DHT22;4551;53.164;8.210;2023-02-28T10:43:42;5.10;99.90
9033;DHT22;4551;53.164;8.210;2023-02-28T10:46:13;5.10;99.90
9033;DHT22;4551;53.164;8.210;2023-02-28T10:48:44;5.20;99.90
9033;DHT22;4551;53.164;8.210;2023-02-28T10:51:15;5.20;99.90
9033;DHT22;4551;53.164;8.210;2023-02-28T10:53:47;5.20;99.90
9033;DHT22;4551;53.164;8.210;2023-02-28T10:56:27;5.20;99.90
9033;DHT22;4551;53.164;8.210;2023-02-28T10:58:57;5.20;99.90
9033;DHT22;4551;53.164;8.210;2023-02-28T11:01:34;5.20;99.90
9033;DHT22;4551;53.164;8.210;2023-02-28T11:04:04;5.30;99.90
9033;DHT22;4551;53.164;8.210;2023-02-28T11:06:45;5.40;99.90
9033;DHT22;4551;53.164;8.210;2023-02-28T11:09:18;5.40;99.90
9033;DHT22;4551;53.164;8.210;2023-02-28T11:11:48;5.40;99.90
9033;DHT22;4551;53.164;8.210;2023-02-28T11:14:19;5.50;99.90
9033;DHT22;4551;53.164;8.210;2023-02-28T11:16:47;5.60;99.90
9033;DHT22;4551;53.164;8.210;2023-02-28T11:19:19;5.70;99.90
9033;DHT22;4551;53.164;8.210;2023-02-28T11:21:48;5.70;99.90
9033;DHT22;4551;53.164;8.210;2023-02-28T11:24:19;5.80;99.90
9033;DHT22;4551;53.164;8.210;2023-02-28T11:26:48;5.90;99.90
9033;DHT22;4551;53.164;8.210;2023-02-28T11:29:19;6.10;99.90
9033;DHT22;4551;53.164;8.210;2023-02-28T11:32:01;6.10;99.90
9033;DHT22;4551;53.164;8.210;2023-02-28T11:34:32;6.30;99.90
9033;DHT22;4551;53.164;8.210;2023-02-28T11:37:00;6.30;99.90
9033;DHT22;4551;53.164;8.210;2023-02-28T11:39:33;6.40;99.90
9033;DHT22;4551;53.164;8.210;2023-02-28T11:42:16;6.40;99.90
9033;DHT22;4551;53.164;8.210;2023-02-28T11:44:53;6.50;99.90
9033;DHT22;4551;53.164;8.210;2023-02-28T11:47:26;6.60;99.90
9033;DHT22;4551;53.164;8.210;2023-02-28T11:50:04;6.70;99.90
9033;DHT22;4551;53.164;8.210;2023-02-28T11:52:36;6.90;99.90
9033;DHT22;4551;53.164;8.210;2023-02-28T11:55:11;6.90;99.90
9033;DHT22;4551;53.164;8.210;2023-02-28T11:57:47;7.10;99.90
9033;DHT22;4551;53.164;8.210;2023-02-28T12:00:23;7.30;99.90
9033;DHT22;4551;53.164;8.210;2023-02-28T12:02:58;7.40;99.90
9033;DHT22;4551;53.164;8.210;2023-02-28T12:05:30;7.40;99.90
9033;DHT22;4551;53.164;8.210;2023-02-28T12:08:08;7.50;99.90
9033;DHT22;4551;53.164;8.210;2023-02-28T12:10:44;7.50;99.90
9033;DHT22;4551;53.164;8.210;2023-02-28T12:13:16;7.60;99.90
9033;DHT22;4551;53.164;8.210;2023-02-28T12:15:52;7.70;99.90
9033;DHT22;4551;53.164;8.210;2023-02-28T12:18:34;7.80;99.90
9033;DHT22;4551;53.164;8.210;2023-02-28T12:21:08;7.80;99.90
9033;DHT22;4551;53.164;8.210;2023-02-28T12:23:45;7.90;99.90
9033;DHT22;4551;53.164;8.210;2023-02-28T12:26:19;7.90;99.90
9033;DHT22;4551;53.164;8.210;2023-02-28T12:28:52;8.00;99.90
9033;DHT22;4551;53.164;8.210;2023-02-28T12:31:24;8.20;99.90
9033;DHT22;4551;53.164;8.210;2023-02-28T12:33:56;8.30;99.90
9033;DHT22;4551;53.164;8.210;2023-02-28T12:36:25;8.50;99.90
9033;DHT22;4551;53.164;8.210;2023-02-28T12:38:58;8.60;99.90
9033;DHT22;4551;53.164;8.210;2023-02-28T12:41:29;8.90;99.90
9033;DHT22;4551;53.164;8.210;2023-02-28T12:44:00;9.10;99.90
9033;DHT22;4551;53.164;8.210;2023-02-28T12:46:30;9.20;99.90
9033;DHT22;4551;53.164;8.210;2023-02-28T12:49:00;9.40;99.90
9033;DHT22;4551;53.164;8.210;2023-02-28T12:51:33;9.00;99.90
9033;DHT22;4551;53.164;8.210;2023-02-28T12:54:04;9.90;99.90
9033;DHT22;4551;53.164;8.210;2023-02-28T12:56:38;10.20;99.90
9033;DHT22;4551;53.164;8.210;2023-02-28T12:59:10;10.60;99.90
9033;DHT22;4551;53.164;8.210;2023-02-28T13:04:38;11.20;99.90
9033;DHT22;4551;53.164;8.210;2023-02-28T13:07:21;11.60;99.90
9033;DHT22;4551;53.164;8.210;2023-02-28T13:09:52;11.90;99.90
9033;DHT22;4551;53.164;8.210;2023-02-28T13:12:21;12.10;99.90
9033;DHT22;4551;53.164;8.210;2023-02-28T13:14:49;12.40;99.90
9033;DHT22;4551;53.164;8.210;2023-02-28T13:17:21;12.70;99.90
9033;DHT22;4551;53.164;8.210;2023-02-28T13:19:55;13.00;99.90
9033;DHT22;4551;53.164;8.210;2023-02-28T13:22:37;13.30;99.90
9033;DHT22;4551;53.164;8.210;2023-02-28T13:27:58;13.80;99.90
9033;DHT22;4551;53.164;8.210;2023-02-28T13:33:19;14.20;99.90
9033;DHT22;4551;53.164;8.210;2023-02-28T13:35:53;14.40;99.90
9033;DHT22;4551;53.164;8.210;2023-02-28T13:38:37;14.90;99.90
9033;DHT22;4551;53.164;8.210;2023-02-28T13:44:01;15.40;99.90
9033;DHT22;4551;53.164;8.210;2023-02-28T13:46:33;15.50;99.90
9033;DHT22;4551;53.164;8.210;2023-02-28T13:49:18;15.40;99.90
9033;DHT22;4551;53.164;8.210;2023-02-28T13:51:47;15.10;99.90
9033;DHT22;4551;53.164;8.210;2023-02-28T13:54:29;15.00;99.90
9033;DHT22;4551;53.164;8.210;2023-02-28T13:57:04;15.10;99.90
9033;DHT22;4551;53.164;8.210;2023-02-28T13:59:35;15.20;99.90
9033;DHT22;4551;53.164;8.210;2023-02-28T14:02:14;15.50;99.90
9033;DHT22;4551;53.164;8.210;2023-02-28T14:04:54;15.80;99.90
9033;DHT22;4551;53.164;8.210;2023-02-28T14:07:27;16.10;99.90
9033;DHT22;4551;53.164;8.210;2023-02-28T14:10:06;16.10;99.90
9033;DHT22;4551;53.164;8.210;2023-02-28T14:12:52;16.20;99.90
9033;DHT22;4551;53.164;8.210;2023-02-28T14:18:17;16.30;99.90
9033;DHT22;4551;53.164;8.210;2023-02-28T14:20:46;16.00;99.90
9033;DHT22;4551;53.164;8.210;2023-02-28T14:23:18;16.00;99.90
9033;DHT22;4551;53.164;8.210;2023-02-28T14:25:53;15.80;99.90
9033;DHT22;4551;53.164;8.210;2023-02-28T14:28:25;15.70;99.90
9033;DHT22;4551;53.164;8.210;2023-02-28T14:31:00;16.00;99.90
9033;DHT22;4551;53.164;8.210;2023-02-28T14:33:35;15.90;99.90
9033;DHT22;4551;53.164;8.210;2023-02-28T14:36:08;15.60;99.90
9033;DHT22;4551;53.164;8.210;2023-02-28T14:38:39;15.40;99.90
9033;DHT22;4551;53.164;8.210;2023-02-28T14:41:16;15.20;99.90
9033;DHT22;4551;53.164;8.210;2023-02-28T14:43:48;15.20;99.90
9033;DHT22;4551;53.164;8.210;2023-02-28T14:46:26;15.20;99.90
9033;DHT22;4551;53.164;8.210;2023-02-28T14:48:55;15.30;99.90
9033;DHT22;4551;53.164;8.210;2023-02-28T14:51:23;15.00;99.80
9033;DHT22;4551;53.164;8.210;2023-02-28T14:53:52;15.00;99.90
9033;DHT22;4551;53.164;8.210;2023-02-28T14:56:26;15.80;99.90
9033;DHT22;4551;53.164;8.210;2023-02-28T14:58:58;15.40;99.90
9033;DHT22;4551;53.164;8.210;2023-02-28T15:01:26;15.30;99.90
9033;DHT22;4551;53.164;8.210;2023-02-28T15:03:58;15.30;99.90
9033;DHT22;4551;53.164;8.210;2023-02-28T15:06:28;15.20;99.90
9033;DHT22;4551;53.164;8.210;2023-02-28T15:09:14;15.20;99.90
9033;DHT22;4551;53.164;8.210;2023-02-28T15:11:46;15.20;99.90
9033;DHT22;4551;53.164;8.210;2023-02-28T15:14:18;14.90;99.90
9033;DHT22;4551;53.164;8.210;2023-02-28T15:16:48;15.10;99.90
9033;DHT22;4551;53.164;8.210;2023-02-28T15:19:19;15.30;99.90
9033;DHT22;4551;53.164;8.210;2023-02-28T15:21:48;15.40;99.90
9033;DHT22;4551;53.164;8.210;2023-02-28T15:24:18;15.50;99.90
9033;DHT22;4551;53.164;8.210;2023-02-28T15:26:53;15.40;99.90
9033;DHT22;4551;53.164;8.210;2023-02-28T15:29:25;15.10;99.70
9033;DHT22;4551;53.164;8.210;2023-02-28T15:31:55;14.90;99.30
9033;DHT22;4551;53.164;8.210;2023-02-28T15:34:26;14.70;99.70
9033;DHT22;4551;53.164;8.210;2023-02-28T15:39:50;14.40;99.90
9033;DHT22;4551;53.164;8.210;2023-02-28T15:42:21;14.30;99.60
9033;DHT22;4551;53.164;8.210;2023-02-28T15:44:49;14.50;99.90
9033;DHT22;4551;53.164;8.210;2023-02-28T15:47:18;14.40;99.70
9033;DHT22;4551;53.164;8.210;2023-02-28T15:49:50;14.20;99.90
9033;DHT22;4551;53.164;8.210;2023-02-28T15:52:22;14.30;99.90
9033;DHT22;4551;53.164;8.210;2023-02-28T15:54:52;14.20;99.90
9033;DHT22;4551;53.164;8.210;2023-02-28T15:57:22;14.00;99.90
9033;DHT22;4551;53.164;8.210;2023-02-28T15:59:52;13.80;99.80
9033;DHT22;4551;53.164;8.210;2023-02-28T16:02:22;13.70;99.70
9033;DHT22;4551;53.164;8.210;2023-02-28T16:05:00;13.50;99.80
9033;DHT22;4551;53.164;8.210;2023-02-28T16:07:29;13.50;99.90
9033;DHT22;4551;53.164;8.210;2023-02-28T16:09:59;13.60;99.90
9033;DHT22;4551;53.164;8.210;2023-02-28T16:12:32;13.40;99.90
9033;DHT22;4551;53.164;8.210;2023-02-28T16:15:01;13.40;99.90
9033;DHT22;4551;53.164;8.210;2023-02-28T16:17:33;13.40;99.90
9033;DHT22;4551;53.164;8.210;2023-02-28T16:20:05;13.30;99.90
9033;DHT22;4551;53.164;8.210;2023-02-28T16:22:33;13.10;99.90
9033;DHT22;4551;53.164;8.210;2023-02-28T16:25:04;13.10;99.90
9033;DHT22;4551;53.164;8.210;2023-02-28T16:27:36;12.90;99.90
9033;DHT22;4551;53.164;8.210;2023-02-28T16:30:15;12.60;99.90
9033;DHT22;4551;53.164;8.210;2023-02-28T16:32:43;12.40;99.90
9033;DHT22;4551;53.164;8.210;2023-02-28T16:35:11;12.20;99.90
9033;DHT22;4551;53.164;8.210;2023-02-28T16:37:40;11.90;99.90
9033;DHT22;4551;53.164;8.210;2023-02-28T16:40:09;11.70;99.90
9033;DHT22;4551;53.164;8.210;2023-02-28T16:42:42;11.50;99.80
9033;DHT22;4551;53.164;8.210;2023-02-28T16:45:14;11.30;99.80
9033;DHT22;4551;53.164;8.210;2023-02-28T16:47:42;11.30;99.90
9033;DHT22;4551;53.164;8.210;2023-02-28T16:50:12;11.10;99.90
9033;DHT22;4551;53.164;8.210;2023-02-28T16:52:43;10.90;99.90
9033;DHT22;4551;53.164;8.210;2023-02-28T16:55:14;10.70;99.80
9033;DHT22;4551;53.164;8.210;2023-02-28T16:57:44;10.60;99.90
9033;DHT22;4551;53.164;8.210;2023-02-28T17:00:13;10.40;99.90
9033;DHT22;4551;53.164;8.210;2023-02-28T17:02:46;10.30;99.90